sensor_id;sensor_type;location;lat;lon;timestamp;P1;durP1;ratioP1;P2;durP2;ratioP2
54191;SDS011;40101;53.002;6.488;2022-10-28T00:00:48;16.67;;;7.60;;
54191;SDS011;40101;53.002;6.488;2022-10-28T00:03:15;16.17;;;7.43;;
54191;SDS011;40101;53.002;6.488;2022-10-28T00:05:41;14.88;;;7.20;;
54191;SDS011;40101;53.002;6.488;2022-10-28T00:08:07;15.00;;;7.53;;
54191;SDS011;40101;53.002;6.488;2022-10-28T00:10:33;32.08;;;8.27;;
54191;SDS011;40101;53.002;6.488;2022-10-28T00:12:58;11.73;;;7.15;;
54191;SDS011;40101;53.002;6.488;2022-10-28T00:15:24;12.82;;;8.02;;
54191;SDS011;40101;53.002;6.488;2022-10-28T00:17:50;13.88;;;7.90;;
54191;SDS011;40101;53.002;6.488;2022-10-28T00:20:16;12.93;;;8.05;;
54191;SDS011;40101;53.002;6.488;2022-10-28T00:22:42;15.02;;;8.77;;
54191;SDS011;40101;53.002;6.488;2022-10-28T00:25:07;13.35;;;8.40;;
54191;SDS011;40101;53.002;6.488;2022-10-28T00:27:34;16.88;;;8.10;;
54191;SDS011;40101;53.002;6.488;2022-10-28T00:29:59;13.32;;;8.75;;
54191;SDS011;40101;53.002;6.488;2022-10-28T00:32:27;20.77;;;8.18;;
54191;SDS011;40101;53.002;6.488;2022-10-28T00:34:53;18.52;;;7.90;;
54191;SDS011;40101;53.002;6.488;2022-10-28T00:37:19;14.77;;;7.95;;
54191;SDS011;40101;53.002;6.488;2022-10-28T00:39:45;13.32;;;7.88;;
54191;SDS011;40101;53.002;6.488;2022-10-28T00:42:10;13.95;;;8.50;;
54191;SDS011;40101;53.002;6.488;2022-10-28T00:50:06;18.25;;;9.00;;
54191;SDS011;40101;53.002;6.488;2022-10-28T00:52:35;13.65;;;8.73;;
54191;SDS011;40101;53.002;6.488;2022-10-28T00:55:02;16.23;;;8.60;;
54191;SDS011;40101;53.002;6.488;2022-10-28T00:57:30;21.25;;;8.95;;
54191;SDS011;40101;53.002;6.488;2022-10-28T00:59:59;16.92;;;9.07;;
54191;SDS011;40101;53.002;6.488;2022-10-28T01:02:27;15.80;;;9.32;;
54191;SDS011;40101;53.002;6.488;2022-10-28T01:04:53;17.40;;;8.63;;
54191;SDS011;40101;53.002;6.488;2022-10-28T01:07:19;19.60;;;8.68;;
54191;SDS011;40101;53.002;6.488;2022-10-28T01:09:45;19.40;;;9.68;;
54191;SDS011;40101;53.002;6.488;2022-10-28T01:17:59;19.63;;;9.60;;
54191;SDS011;40101;53.002;6.488;2022-10-28T01:23:34;15.90;;;10.70;;
54191;SDS011;40101;53.002;6.488;2022-10-28T01:29:24;17.65;;;10.07;;
54191;SDS011;40101;53.002;6.488;2022-10-28T01:32:36;16.50;;;10.30;;
54191;SDS011;40101;53.002;6.488;2022-10-28T01:35:13;20.02;;;11.68;;
54191;SDS011;40101;53.002;6.488;2022-10-28T01:40:35;19.45;;;11.50;;
54191;SDS011;40101;53.002;6.488;2022-10-28T01:43:23;17.87;;;11.67;;
54191;SDS011;40101;53.002;6.488;2022-10-28T01:46:13;19.48;;;11.43;;
54191;SDS011;40101;53.002;6.488;2022-10-28T01:48:48;20.77;;;11.93;;
54191;SDS011;40101;53.002;6.488;2022-10-28T01:51:26;21.35;;;12.02;;
54191;SDS011;40101;53.002;6.488;2022-10-28T01:53:57;19.60;;;11.35;;
54191;SDS011;40101;53.002;6.488;2022-10-28T01:56:30;25.27;;;12.13;;
54191;SDS011;40101;53.002;6.488;2022-10-28T01:58:59;17.77;;;11.77;;
54191;SDS011;40101;53.002;6.488;2022-10-28T02:01:27;18.40;;;11.43;;
54191;SDS011;40101;53.002;6.488;2022-10-28T02:03:54;17.58;;;10.45;;
54191;SDS011;40101;53.002;6.488;2022-10-28T02:06:22;19.88;;;12.05;;
54191;SDS011;40101;53.002;6.488;2022-10-28T02:09:07;19.90;;;11.98;;
54191;SDS011;40101;53.002;6.488;2022-10-28T02:14:47;22.90;;;13.43;;
54191;SDS011;40101;53.002;6.488;2022-10-28T02:20:08;20.00;;;11.57;;
54191;SDS011;40101;53.002;6.488;2022-10-28T02:22:52;16.52;;;12.05;;
54191;SDS011;40101;53.002;6.488;2022-10-28T02:25:45;22.98;;;11.43;;
54191;SDS011;40101;53.002;6.488;2022-10-28T02:28:21;19.05;;;12.73;;
54191;SDS011;40101;53.002;6.488;2022-10-28T02:30:58;18.65;;;12.05;;
54191;SDS011;40101;53.002;6.488;2022-10-28T02:33:28;20.95;;;13.18;;
54191;SDS011;40101;53.002;6.488;2022-10-28T02:35:59;21.38;;;12.70;;
54191;SDS011;40101;53.002;6.488;2022-10-28T02:38:38;22.52;;;13.30;;
54191;SDS011;40101;53.002;6.488;2022-10-28T02:41:18;20.08;;;13.18;;
54191;SDS011;40101;53.002;6.488;2022-10-28T02:43:58;24.27;;;12.80;;
54191;SDS011;40101;53.002;6.488;2022-10-28T02:46:29;20.63;;;13.20;;
54191;SDS011;40101;53.002;6.488;2022-10-28T02:49:05;22.23;;;13.30;;
54191;SDS011;40101;53.002;6.488;2022-10-28T02:51:39;19.35;;;13.13;;
54191;SDS011;40101;53.002;6.488;2022-10-28T02:57:15;61.25;;;13.65;;
54191;SDS011;40101;53.002;6.488;2022-10-28T02:59:50;28.13;;;13.73;;
54191;SDS011;40101;53.002;6.488;2022-10-28T03:02:20;22.13;;;13.55;;
54191;SDS011;40101;53.002;6.488;2022-10-28T03:04:46;25.15;;;13.90;;
54191;SDS011;40101;53.002;6.488;2022-10-28T03:07:12;24.98;;;15.07;;
54191;SDS011;40101;53.002;6.488;2022-10-28T03:09:37;22.15;;;14.20;;
54191;SDS011;40101;53.002;6.488;2022-10-28T03:12:03;21.38;;;14.45;;
54191;SDS011;40101;53.002;6.488;2022-10-28T03:14:29;24.95;;;14.90;;
54191;SDS011;40101;53.002;6.488;2022-10-28T03:16:54;28.58;;;14.50;;
54191;SDS011;40101;53.002;6.488;2022-10-28T03:19:20;20.38;;;13.27;;
54191;SDS011;40101;53.002;6.488;2022-10-28T03:21:45;21.67;;;14.57;;
54191;SDS011;40101;53.002;6.488;2022-10-28T03:24:11;22.70;;;14.55;;
54191;SDS011;40101;53.002;6.488;2022-10-28T03:26:36;29.33;;;14.68;;
54191;SDS011;40101;53.002;6.488;2022-10-28T03:29:02;25.52;;;15.50;;
54191;SDS011;40101;53.002;6.488;2022-10-28T03:31:28;28.90;;;16.30;;
54191;SDS011;40101;53.002;6.488;2022-10-28T03:33:54;23.63;;;14.85;;
54191;SDS011;40101;53.002;6.488;2022-10-28T03:36:20;25.35;;;14.88;;
54191;SDS011;40101;53.002;6.488;2022-10-28T03:38:45;26.52;;;15.88;;
54191;SDS011;40101;53.002;6.488;2022-10-28T03:41:11;22.65;;;14.18;;
54191;SDS011;40101;53.002;6.488;2022-10-28T03:43:36;29.90;;;14.60;;
54191;SDS011;40101;53.002;6.488;2022-10-28T03:46:02;28.23;;;15.25;;
54191;SDS011;40101;53.002;6.488;2022-10-28T03:48:28;28.38;;;15.43;;
54191;SDS011;40101;53.002;6.488;2022-10-28T03:50:53;32.08;;;15.60;;
54191;SDS011;40101;53.002;6.488;2022-10-28T03:53:19;24.30;;;15.25;;
54191;SDS011;40101;53.002;6.488;2022-10-28T03:55:52;35.22;;;16.13;;
54191;SDS011;40101;53.002;6.488;2022-10-28T03:58:19;23.20;;;14.65;;
54191;SDS011;40101;53.002;6.488;2022-10-28T04:00:46;25.42;;;14.82;;
54191;SDS011;40101;53.002;6.488;2022-10-28T04:03:13;26.05;;;15.55;;
54191;SDS011;40101;53.002;6.488;2022-10-28T04:05:39;23.60;;;14.52;;
54191;SDS011;40101;53.002;6.488;2022-10-28T04:08:05;29.98;;;15.60;;
54191;SDS011;40101;53.002;6.488;2022-10-28T04:10:31;22.02;;;14.23;;
54191;SDS011;40101;53.002;6.488;2022-10-28T04:13:00;22.08;;;15.13;;
54191;SDS011;40101;53.002;6.488;2022-10-28T04:15:26;24.80;;;14.80;;
54191;SDS011;40101;53.002;6.488;2022-10-28T04:17:52;26.88;;;15.27;;
54191;SDS011;40101;53.002;6.488;2022-10-28T04:20:17;26.38;;;15.32;;
54191;SDS011;40101;53.002;6.488;2022-10-28T04:22:43;21.52;;;13.90;;
54191;SDS011;40101;53.002;6.488;2022-10-28T04:25:09;26.20;;;13.77;;
54191;SDS011;40101;53.002;6.488;2022-10-28T04:27:35;25.48;;;15.10;;
54191;SDS011;40101;53.002;6.488;2022-10-28T04:30:02;24.63;;;15.27;;
54191;SDS011;40101;53.002;6.488;2022-10-28T04:32:28;23.10;;;14.05;;
54191;SDS011;40101;53.002;6.488;2022-10-28T04:34:53;21.83;;;13.73;;
54191;SDS011;40101;53.002;6.488;2022-10-28T04:37:19;27.13;;;14.05;;
54191;SDS011;40101;53.002;6.488;2022-10-28T04:39:45;25.30;;;14.52;;
54191;SDS011;40101;53.002;6.488;2022-10-28T04:42:10;28.05;;;14.40;;
54191;SDS011;40101;53.002;6.488;2022-10-28T04:44:36;25.73;;;15.30;;
54191;SDS011;40101;53.002;6.488;2022-10-28T04:47:01;23.90;;;14.70;;
54191;SDS011;40101;53.002;6.488;2022-10-28T04:49:27;25.55;;;15.10;;
54191;SDS011;40101;53.002;6.488;2022-10-28T04:51:52;34.22;;;14.82;;
54191;SDS011;40101;53.002;6.488;2022-10-28T04:54:18;25.80;;;15.13;;
54191;SDS011;40101;53.002;6.488;2022-10-28T04:56:43;24.08;;;15.38;;
54191;SDS011;40101;53.002;6.488;2022-10-28T04:59:09;25.52;;;14.88;;
54191;SDS011;40101;53.002;6.488;2022-10-28T05:01:35;23.13;;;13.98;;
54191;SDS011;40101;53.002;6.488;2022-10-28T05:04:01;20.15;;;14.40;;
54191;SDS011;40101;53.002;6.488;2022-10-28T05:06:26;25.30;;;13.05;;
54191;SDS011;40101;53.002;6.488;2022-10-28T05:08:52;20.65;;;13.90;;
54191;SDS011;40101;53.002;6.488;2022-10-28T05:11:18;28.35;;;14.05;;
54191;SDS011;40101;53.002;6.488;2022-10-28T05:13:43;24.02;;;13.23;;
54191;SDS011;40101;53.002;6.488;2022-10-28T05:16:09;24.42;;;13.45;;
54191;SDS011;40101;53.002;6.488;2022-10-28T05:18:34;18.55;;;13.15;;
54191;SDS011;40101;53.002;6.488;2022-10-28T05:21:00;24.48;;;13.85;;
54191;SDS011;40101;53.002;6.488;2022-10-28T05:23:26;25.90;;;13.43;;
54191;SDS011;40101;53.002;6.488;2022-10-28T05:25:51;19.10;;;12.07;;
54191;SDS011;40101;53.002;6.488;2022-10-28T05:28:17;26.20;;;13.85;;
54191;SDS011;40101;53.002;6.488;2022-10-28T05:30:43;21.25;;;12.65;;
54191;SDS011;40101;53.002;6.488;2022-10-28T05:33:09;20.48;;;13.07;;
54191;SDS011;40101;53.002;6.488;2022-10-28T05:35:36;20.85;;;12.13;;
54191;SDS011;40101;53.002;6.488;2022-10-28T05:38:02;22.50;;;12.23;;
54191;SDS011;40101;53.002;6.488;2022-10-28T05:40:28;25.90;;;12.98;;
54191;SDS011;40101;53.002;6.488;2022-10-28T05:43:00;31.02;;;13.60;;
54191;SDS011;40101;53.002;6.488;2022-10-28T05:45:26;21.15;;;12.43;;
54191;SDS011;40101;53.002;6.488;2022-10-28T05:47:52;21.00;;;13.30;;
54191;SDS011;40101;53.002;6.488;2022-10-28T05:50:19;21.92;;;12.77;;
54191;SDS011;40101;53.002;6.488;2022-10-28T05:52:47;24.88;;;12.82;;
54191;SDS011;40101;53.002;6.488;2022-10-28T05:55:14;18.70;;;12.20;;
54191;SDS011;40101;53.002;6.488;2022-10-28T05:57:47;20.83;;;11.57;;
54191;SDS011;40101;53.002;6.488;2022-10-28T06:00:18;17.05;;;11.10;;
54191;SDS011;40101;53.002;6.488;2022-10-28T06:02:50;17.35;;;11.55;;
54191;SDS011;40101;53.002;6.488;2022-10-28T06:05:16;17.35;;;12.48;;
54191;SDS011;40101;53.002;6.488;2022-10-28T06:07:47;21.55;;;12.32;;
54191;SDS011;40101;53.002;6.488;2022-10-28T06:10:13;27.98;;;12.27;;
54191;SDS011;40101;53.002;6.488;2022-10-28T06:12:38;21.13;;;11.30;;
54191;SDS011;40101;53.002;6.488;2022-10-28T06:15:04;15.93;;;11.00;;
54191;SDS011;40101;53.002;6.488;2022-10-28T06:17:30;20.63;;;11.80;;
54191;SDS011;40101;53.002;6.488;2022-10-28T06:19:56;17.92;;;11.13;;
54191;SDS011;40101;53.002;6.488;2022-10-28T06:22:21;22.05;;;10.75;;
54191;SDS011;40101;53.002;6.488;2022-10-28T06:24:47;14.57;;;11.35;;
54191;SDS011;40101;53.002;6.488;2022-10-28T06:27:12;17.10;;;11.40;;
54191;SDS011;40101;53.002;6.488;2022-10-28T06:29:38;26.98;;;12.23;;
54191;SDS011;40101;53.002;6.488;2022-10-28T06:32:04;18.33;;;11.48;;
54191;SDS011;40101;53.002;6.488;2022-10-28T06:34:40;19.67;;;11.40;;
54191;SDS011;40101;53.002;6.488;2022-10-28T06:37:06;24.20;;;11.73;;
54191;SDS011;40101;53.002;6.488;2022-10-28T06:39:34;18.63;;;11.43;;
54191;SDS011;40101;53.002;6.488;2022-10-28T06:42:02;23.17;;;11.65;;
54191;SDS011;40101;53.002;6.488;2022-10-28T06:44:27;20.17;;;10.88;;
54191;SDS011;40101;53.002;6.488;2022-10-28T06:46:55;22.48;;;10.73;;
54191;SDS011;40101;53.002;6.488;2022-10-28T06:49:21;21.27;;;11.20;;
54191;SDS011;40101;53.002;6.488;2022-10-28T06:51:47;19.33;;;10.00;;
54191;SDS011;40101;53.002;6.488;2022-10-28T06:54:20;16.42;;;11.52;;
54191;SDS011;40101;53.002;6.488;2022-10-28T06:57:01;16.92;;;11.02;;
54191;SDS011;40101;53.002;6.488;2022-10-28T06:59:48;15.63;;;10.13;;
54191;SDS011;40101;53.002;6.488;2022-10-28T07:02:14;23.75;;;10.13;;
54191;SDS011;40101;53.002;6.488;2022-10-28T07:04:40;23.15;;;10.48;;
54191;SDS011;40101;53.002;6.488;2022-10-28T07:07:06;20.63;;;10.63;;
54191;SDS011;40101;53.002;6.488;2022-10-28T07:09:32;19.83;;;9.90;;
54191;SDS011;40101;53.002;6.488;2022-10-28T07:11:58;17.98;;;10.48;;
54191;SDS011;40101;53.002;6.488;2022-10-28T07:14:23;18.60;;;8.45;;
54191;SDS011;40101;53.002;6.488;2022-10-28T07:16:49;18.50;;;9.55;;
54191;SDS011;40101;53.002;6.488;2022-10-28T07:19:24;16.25;;;8.82;;
54191;SDS011;40101;53.002;6.488;2022-10-28T07:26:05;16.05;;;8.57;;
54191;SDS011;40101;53.002;6.488;2022-10-28T07:28:31;19.80;;;8.48;;
54191;SDS011;40101;53.002;6.488;2022-10-28T07:31:00;17.10;;;7.53;;
54191;SDS011;40101;53.002;6.488;2022-10-28T07:33:26;13.25;;;7.90;;
54191;SDS011;40101;53.002;6.488;2022-10-28T07:35:52;12.63;;;7.53;;
54191;SDS011;40101;53.002;6.488;2022-10-28T07:38:19;11.60;;;6.65;;
54191;SDS011;40101;53.002;6.488;2022-10-28T07:40:45;12.98;;;6.60;;
54191;SDS011;40101;53.002;6.488;2022-10-28T07:43:11;18.00;;;7.25;;
54191;SDS011;40101;53.002;6.488;2022-10-28T07:45:39;14.40;;;6.30;;
54191;SDS011;40101;53.002;6.488;2022-10-28T07:48:05;18.27;;;6.80;;
54191;SDS011;40101;53.002;6.488;2022-10-28T07:50:31;17.42;;;6.22;;
54191;SDS011;40101;53.002;6.488;2022-10-28T07:52:57;13.18;;;6.70;;
54191;SDS011;40101;53.002;6.488;2022-10-28T07:55:23;17.95;;;7.35;;
54191;SDS011;40101;53.002;6.488;2022-10-28T07:57:50;12.68;;;5.38;;
54191;SDS011;40101;53.002;6.488;2022-10-28T08:00:15;14.05;;;5.50;;
54191;SDS011;40101;53.002;6.488;2022-10-28T08:02:41;11.27;;;5.50;;
54191;SDS011;40101;53.002;6.488;2022-10-28T08:05:07;12.63;;;5.80;;
54191;SDS011;40101;53.002;6.488;2022-10-28T08:07:33;13.80;;;5.50;;
54191;SDS011;40101;53.002;6.488;2022-10-28T08:09:58;14.02;;;5.18;;
54191;SDS011;40101;53.002;6.488;2022-10-28T08:12:24;13.77;;;6.15;;
54191;SDS011;40101;53.002;6.488;2022-10-28T08:14:51;13.18;;;5.10;;
54191;SDS011;40101;53.002;6.488;2022-10-28T08:17:17;13.02;;;5.15;;
54191;SDS011;40101;53.002;6.488;2022-10-28T08:19:42;14.05;;;6.63;;
54191;SDS011;40101;53.002;6.488;2022-10-28T08:22:08;19.48;;;6.15;;
54191;SDS011;40101;53.002;6.488;2022-10-28T08:24:34;15.05;;;5.53;;
54191;SDS011;40101;53.002;6.488;2022-10-28T08:27:00;9.85;;;5.25;;
54191;SDS011;40101;53.002;6.488;2022-10-28T08:29:26;8.75;;;5.35;;
54191;SDS011;40101;53.002;6.488;2022-10-28T08:31:52;11.40;;;5.32;;
54191;SDS011;40101;53.002;6.488;2022-10-28T08:34:17;13.48;;;5.88;;
54191;SDS011;40101;53.002;6.488;2022-10-28T08:36:43;12.52;;;5.13;;
54191;SDS011;40101;53.002;6.488;2022-10-28T08:39:08;13.32;;;6.03;;
54191;SDS011;40101;53.002;6.488;2022-10-28T08:41:36;11.75;;;4.25;;
54191;SDS011;40101;53.002;6.488;2022-10-28T08:49:13;9.98;;;4.22;;
54191;SDS011;40101;53.002;6.488;2022-10-28T08:51:48;21.80;;;7.05;;
54191;SDS011;40101;53.002;6.488;2022-10-28T08:54:41;10.38;;;4.38;;
54191;SDS011;40101;53.002;6.488;2022-10-28T08:57:15;10.93;;;4.30;;
54191;SDS011;40101;53.002;6.488;2022-10-28T08:59:54;8.57;;;4.30;;
54191;SDS011;40101;53.002;6.488;2022-10-28T09:02:25;9.75;;;4.65;;
54191;SDS011;40101;53.002;6.488;2022-10-28T09:04:55;20.60;;;4.50;;
54191;SDS011;40101;53.002;6.488;2022-10-28T09:07:32;14.63;;;5.78;;
54191;SDS011;40101;53.002;6.488;2022-10-28T09:10:00;14.50;;;5.35;;
54191;SDS011;40101;53.002;6.488;2022-10-28T09:12:42;12.43;;;4.60;;
54191;SDS011;40101;53.002;6.488;2022-10-28T09:20:56;12.88;;;5.40;;
54191;SDS011;40101;53.002;6.488;2022-10-28T09:23:29;13.93;;;4.93;;
54191;SDS011;40101;53.002;6.488;2022-10-28T09:26:01;14.30;;;4.47;;
54191;SDS011;40101;53.002;6.488;2022-10-28T09:31:51;10.15;;;4.28;;
54191;SDS011;40101;53.002;6.488;2022-10-28T09:36:54;13.93;;;4.93;;
54191;SDS011;40101;53.002;6.488;2022-10-28T09:39:28;11.48;;;4.50;;
54191;SDS011;40101;53.002;6.488;2022-10-28T09:42:01;14.73;;;4.70;;
54191;SDS011;40101;53.002;6.488;2022-10-28T09:44:42;12.80;;;5.25;;
54191;SDS011;40101;53.002;6.488;2022-10-28T09:47:17;17.15;;;5.10;;
54191;SDS011;40101;53.002;6.488;2022-10-28T09:49:46;13.63;;;6.25;;
54191;SDS011;40101;53.002;6.488;2022-10-28T09:52:21;16.00;;;4.70;;
54191;SDS011;40101;53.002;6.488;2022-10-28T09:54:51;18.55;;;7.28;;
54191;SDS011;40101;53.002;6.488;2022-10-28T09:57:18;17.27;;;5.78;;
54191;SDS011;40101;53.002;6.488;2022-10-28T09:59:44;11.05;;;4.80;;
54191;SDS011;40101;53.002;6.488;2022-10-28T10:02:27;13.00;;;5.43;;
54191;SDS011;40101;53.002;6.488;2022-10-28T10:04:58;13.45;;;5.53;;
54191;SDS011;40101;53.002;6.488;2022-10-28T10:10:12;15.68;;;5.35;;
54191;SDS011;40101;53.002;6.488;2022-10-28T10:12:46;12.98;;;5.47;;
54191;SDS011;40101;53.002;6.488;2022-10-28T10:15:15;18.85;;;6.95;;
54191;SDS011;40101;53.002;6.488;2022-10-28T10:17:49;14.75;;;7.10;;
54191;SDS011;40101;53.002;6.488;2022-10-28T10:20:19;15.30;;;5.85;;
54191;SDS011;40101;53.002;6.488;2022-10-28T10:22:45;15.40;;;6.40;;
54191;SDS011;40101;53.002;6.488;2022-10-28T10:27:50;25.55;;;5.72;;
54191;SDS011;40101;53.002;6.488;2022-10-28T10:30:38;15.90;;;6.03;;
54191;SDS011;40101;53.002;6.488;2022-10-28T10:33:16;16.27;;;6.25;;
54191;SDS011;40101;53.002;6.488;2022-10-28T10:36:00;19.83;;;5.05;;
54191;SDS011;40101;53.002;6.488;2022-10-28T10:38:28;13.65;;;5.43;;
54191;SDS011;40101;53.002;6.488;2022-10-28T10:40:56;20.35;;;5.88;;
54191;SDS011;40101;53.002;6.488;2022-10-28T10:43:28;10.93;;;5.90;;
54191;SDS011;40101;53.002;6.488;2022-10-28T10:46:03;15.40;;;5.10;;
54191;SDS011;40101;53.002;6.488;2022-10-28T10:48:32;15.07;;;5.10;;
54191;SDS011;40101;53.002;6.488;2022-10-28T10:53:57;11.43;;;5.25;;
54191;SDS011;40101;53.002;6.488;2022-10-28T10:56:31;13.15;;;5.47;;
54191;SDS011;40101;53.002;6.488;2022-10-28T10:58:58;20.15;;;4.90;;
54191;SDS011;40101;53.002;6.488;2022-10-28T11:01:27;18.15;;;5.38;;
54191;SDS011;40101;53.002;6.488;2022-10-28T11:04:05;15.25;;;4.80;;
54191;SDS011;40101;53.002;6.488;2022-10-28T11:06:33;15.55;;;4.78;;
54191;SDS011;40101;53.002;6.488;2022-10-28T11:09:03;16.13;;;5.18;;
54191;SDS011;40101;53.002;6.488;2022-10-28T11:11:43;12.00;;;4.47;;
54191;SDS011;40101;53.002;6.488;2022-10-28T11:16:51;16.95;;;5.30;;
54191;SDS011;40101;53.002;6.488;2022-10-28T11:24:30;18.48;;;5.10;;
54191;SDS011;40101;53.002;6.488;2022-10-28T11:27:22;17.92;;;3.95;;
54191;SDS011;40101;53.002;6.488;2022-10-28T11:29:59;16.70;;;5.03;;
54191;SDS011;40101;53.002;6.488;2022-10-28T11:32:41;18.23;;;5.32;;
54191;SDS011;40101;53.002;6.488;2022-10-28T11:41:30;13.35;;;4.70;;
54191;SDS011;40101;53.002;6.488;2022-10-28T11:44:18;19.30;;;4.85;;
54191;SDS011;40101;53.002;6.488;2022-10-28T11:55:20;12.82;;;5.53;;
54191;SDS011;40101;53.002;6.488;2022-10-28T12:23:27;22.02;;;6.65;;
54191;SDS011;40101;53.002;6.488;2022-10-28T12:25:36;15.55;;;6.45;;
54191;SDS011;40101;53.002;6.488;2022-10-28T12:28:06;13.73;;;5.50;;
54191;SDS011;40101;53.002;6.488;2022-10-28T12:30:42;17.23;;;5.82;;
54191;SDS011;40101;53.002;6.488;2022-10-28T12:33:12;13.75;;;5.80;;
54191;SDS011;40101;53.002;6.488;2022-10-28T12:41:41;12.80;;;4.60;;
54191;SDS011;40101;53.002;6.488;2022-10-28T12:44:20;18.25;;;5.15;;
54191;SDS011;40101;53.002;6.488;2022-10-28T12:46:53;12.18;;;5.35;;
54191;SDS011;40101;53.002;6.488;2022-10-28T12:53:01;15.82;;;4.82;;
54191;SDS011;40101;53.002;6.488;2022-10-28T12:57:35;12.98;;;5.82;;
54191;SDS011;40101;53.002;6.488;2022-10-28T13:03:35;18.77;;;5.72;;
54191;SDS011;40101;53.002;6.488;2022-10-28T13:06:09;16.77;;;6.30;;
54191;SDS011;40101;53.002;6.488;2022-10-28T13:09:29;18.10;;;5.28;;
54191;SDS011;40101;53.002;6.488;2022-10-28T13:22:13;14.02;;;5.43;;
54191;SDS011;40101;53.002;6.488;2022-10-28T13:34:08;14.32;;;6.47;;
54191;SDS011;40101;53.002;6.488;2022-10-28T13:37:15;16.70;;;5.28;;
54191;SDS011;40101;53.002;6.488;2022-10-28T13:46:02;21.08;;;5.75;;
54191;SDS011;40101;53.002;6.488;2022-10-28T13:48:43;19.08;;;5.78;;
54191;SDS011;40101;53.002;6.488;2022-10-28T13:54:30;14.20;;;5.40;;
54191;SDS011;40101;53.002;6.488;2022-10-28T13:57:37;14.43;;;5.25;;
54191;SDS011;40101;53.002;6.488;2022-10-28T14:03:30;13.38;;;5.05;;
54191;SDS011;40101;53.002;6.488;2022-10-28T14:06:10;18.23;;;5.20;;
54191;SDS011;40101;53.002;6.488;2022-10-28T14:12:40;16.63;;;5.35;;
54191;SDS011;40101;53.002;6.488;2022-10-28T14:22:52;11.93;;;4.97;;
54191;SDS011;40101;53.002;6.488;2022-10-28T14:45:49;17.50;;;5.53;;
54191;SDS011;40101;53.002;6.488;2022-10-28T14:49:02;17.60;;;6.18;;
54191;SDS011;40101;53.002;6.488;2022-10-28T14:51:37;14.73;;;5.78;;
54191;SDS011;40101;53.002;6.488;2022-10-28T14:54:27;11.95;;;5.25;;
54191;SDS011;40101;53.002;6.488;2022-10-28T14:57:28;17.50;;;4.78;;
54191;SDS011;40101;53.002;6.488;2022-10-28T15:00:06;12.82;;;6.43;;
54191;SDS011;40101;53.002;6.488;2022-10-28T15:02:33;18.52;;;5.63;;
54191;SDS011;40101;53.002;6.488;2022-10-28T15:08:23;11.65;;;5.60;;
54191;SDS011;40101;53.002;6.488;2022-10-28T15:10:57;14.70;;;5.65;;
54191;SDS011;40101;53.002;6.488;2022-10-28T15:13:24;14.70;;;6.22;;
54191;SDS011;40101;53.002;6.488;2022-10-28T15:15:51;18.73;;;5.18;;
54191;SDS011;40101;53.002;6.488;2022-10-28T15:18:30;21.45;;;5.35;;
54191;SDS011;40101;53.002;6.488;2022-10-28T15:21:08;16.05;;;4.95;;
54191;SDS011;40101;53.002;6.488;2022-10-28T15:26:25;15.52;;;5.60;;
54191;SDS011;40101;53.002;6.488;2022-10-28T15:28:50;17.05;;;4.50;;
54191;SDS011;40101;53.002;6.488;2022-10-28T15:31:16;19.85;;;6.43;;
54191;SDS011;40101;53.002;6.488;2022-10-28T15:36:29;16.55;;;5.82;;
54191;SDS011;40101;53.002;6.488;2022-10-28T15:41:55;20.30;;;4.78;;
54191;SDS011;40101;53.002;6.488;2022-10-28T15:44:31;15.93;;;5.65;;
54191;SDS011;40101;53.002;6.488;2022-10-28T15:47:17;11.80;;;4.57;;
54191;SDS011;40101;53.002;6.488;2022-10-28T15:52:51;17.05;;;4.90;;
54191;SDS011;40101;53.002;6.488;2022-10-28T15:55:33;16.35;;;5.80;;
54191;SDS011;40101;53.002;6.488;2022-10-28T15:58:28;15.88;;;5.50;;
54191;SDS011;40101;53.002;6.488;2022-10-28T16:04:48;14.82;;;5.18;;
54191;SDS011;40101;53.002;6.488;2022-10-28T16:07:07;16.92;;;5.03;;
54191;SDS011;40101;53.002;6.488;2022-10-28T16:09:46;14.50;;;4.75;;
54191;SDS011;40101;53.002;6.488;2022-10-28T16:12:20;17.70;;;6.18;;
54191;SDS011;40101;53.002;6.488;2022-10-28T16:14:58;12.00;;;5.47;;
54191;SDS011;40101;53.002;6.488;2022-10-28T16:17:32;13.60;;;5.47;;
54191;SDS011;40101;53.002;6.488;2022-10-28T16:22:28;17.85;;;5.80;;
54191;SDS011;40101;53.002;6.488;2022-10-28T16:24:57;14.70;;;5.75;;
54191;SDS011;40101;53.002;6.488;2022-10-28T16:27:32;14.52;;;5.88;;
54191;SDS011;40101;53.002;6.488;2022-10-28T16:30:11;26.95;;;6.68;;
54191;SDS011;40101;53.002;6.488;2022-10-28T16:32:47;19.35;;;5.85;;
54191;SDS011;40101;53.002;6.488;2022-10-28T16:38:37;15.05;;;5.28;;
54191;SDS011;40101;53.002;6.488;2022-10-28T16:41:18;21.33;;;6.60;;
54191;SDS011;40101;53.002;6.488;2022-10-28T16:43:52;16.45;;;6.15;;
54191;SDS011;40101;53.002;6.488;2022-10-28T16:46:25;15.02;;;5.65;;
54191;SDS011;40101;53.002;6.488;2022-10-28T16:48:51;12.77;;;5.97;;
54191;SDS011;40101;53.002;6.488;2022-10-28T16:51:26;15.57;;;5.97;;
54191;SDS011;40101;53.002;6.488;2022-10-28T16:56:29;14.93;;;6.00;;
54191;SDS011;40101;53.002;6.488;2022-10-28T16:58:55;15.57;;;5.53;;
54191;SDS011;40101;53.002;6.488;2022-10-28T17:01:21;14.85;;;5.75;;
54191;SDS011;40101;53.002;6.488;2022-10-28T17:03:46;20.23;;;6.78;;
54191;SDS011;40101;53.002;6.488;2022-10-28T17:06:12;20.65;;;5.65;;
54191;SDS011;40101;53.002;6.488;2022-10-28T17:08:41;19.83;;;6.00;;
54191;SDS011;40101;53.002;6.488;2022-10-28T17:11:07;20.65;;;6.32;;
54191;SDS011;40101;53.002;6.488;2022-10-28T17:13:37;15.18;;;6.20;;
54191;SDS011;40101;53.002;6.488;2022-10-28T17:16:08;12.63;;;4.93;;
54191;SDS011;40101;53.002;6.488;2022-10-28T17:18:40;15.30;;;6.13;;
54191;SDS011;40101;53.002;6.488;2022-10-28T17:21:07;14.00;;;5.63;;
54191;SDS011;40101;53.002;6.488;2022-10-28T17:23:34;17.00;;;5.53;;
54191;SDS011;40101;53.002;6.488;2022-10-28T17:26:02;20.20;;;5.30;;
54191;SDS011;40101;53.002;6.488;2022-10-28T17:28:30;21.17;;;6.25;;
54191;SDS011;40101;53.002;6.488;2022-10-28T17:31:03;13.38;;;5.85;;
54191;SDS011;40101;53.002;6.488;2022-10-28T17:33:35;13.80;;;5.78;;
54191;SDS011;40101;53.002;6.488;2022-10-28T17:36:05;22.48;;;6.28;;
54191;SDS011;40101;53.002;6.488;2022-10-28T17:38:33;15.82;;;4.93;;
54191;SDS011;40101;53.002;6.488;2022-10-28T17:41:00;15.88;;;5.95;;
54191;SDS011;40101;53.002;6.488;2022-10-28T17:43:26;17.83;;;5.75;;
54191;SDS011;40101;53.002;6.488;2022-10-28T17:45:54;18.60;;;5.57;;
54191;SDS011;40101;53.002;6.488;2022-10-28T17:48:27;15.32;;;5.78;;
54191;SDS011;40101;53.002;6.488;2022-10-28T17:50:53;13.13;;;5.18;;
54191;SDS011;40101;53.002;6.488;2022-10-28T17:53:19;20.40;;;6.50;;
54191;SDS011;40101;53.002;6.488;2022-10-28T17:55:56;10.93;;;4.95;;
54191;SDS011;40101;53.002;6.488;2022-10-28T17:58:25;16.30;;;4.80;;
54191;SDS011;40101;53.002;6.488;2022-10-28T18:00:57;17.80;;;4.85;;
54191;SDS011;40101;53.002;6.488;2022-10-28T18:03:24;14.80;;;4.95;;
54191;SDS011;40101;53.002;6.488;2022-10-28T18:05:50;22.60;;;5.30;;
54191;SDS011;40101;53.002;6.488;2022-10-28T18:08:17;11.07;;;4.97;;
54191;SDS011;40101;53.002;6.488;2022-10-28T18:10:56;20.00;;;5.78;;
54191;SDS011;40101;53.002;6.488;2022-10-28T18:13:27;14.73;;;4.30;;
54191;SDS011;40101;53.002;6.488;2022-10-28T18:16:07;19.25;;;5.03;;
54191;SDS011;40101;53.002;6.488;2022-10-28T18:19:00;18.10;;;5.22;;
54191;SDS011;40101;53.002;6.488;2022-10-28T18:21:28;14.43;;;4.43;;
54191;SDS011;40101;53.002;6.488;2022-10-28T18:23:54;23.83;;;4.78;;